Yeager Airport
KCRW : now visible

Airfield :











YOU CAN JOIN US ON...

 
LOGIN :

Register | Disclaimer

   EN    FR    IT 

 









Legend :    VFR   Marginal VFR   IFR   Intensive IFR   Very Intensive IFR
Visi :
Ceiling :
>= 8 km
>= 3000ft
5 to 8 km
1000 to 3000 ft
1500m to 5 km
500 to 1000 ft
800 to 1500m
200 to 500 ft
< 800m
< 200 ft
Symbols :   Thunderstorms  Fog  Heavy snow  Heavy precipitations  Wind > 20 kt






- Airport Elevation : 981 ft
- IATA code : CRW


KCRW - Yeager

CURRENT METAR :
  • 011754Z 30007KT 7SM -RA BKN007 OVC014 07/05 A2994 RMK AO2 RAE02B40 SLP142 P0001 60002 T00670050 10072 20056 51008

EXPIRED METARs :
  • 011654Z 32007KT 7SM -RA BKN008 OVC014 07/05 A2994 RMK AO2 RAB01 SLP142 P0001 T00670050
  • 011554Z 29007KT 10SM BKN009 OVC014 07/04 A2994 RMK AO2 DZE44 SLP140 P0000 T00670044

TAF KCRW
Valid from the 01 at 18:00 until the 02 at 18:00 UTC


011720Z 0118/0218 31004KT P6SM BKN017
TEMPO 0118/0120 4SM -SHRA OVC009
FM012000 30004KT P6SM -SHRA BKN020
FM012200 31005KT P6SM BKN025
FM020500 VRB03KT P6SM BKN030
FM021600 32004KT P6SM SCT035



MET'MAP, your aeronautical weather chart ! - Copyright ORBIFLY December 2007 - Disclaimer

ORBIFLY MET'MAP TEAM :

Programming & Development : Alexandra Zaïnal
Concept & original design : Baudouin d'Aumeries
Assistance for programming : Marc-Olivier Méhu
Technical & hardware support : Manuel Goepfert

Contact : metmap@orbifly.com




SOURCES & CREDITS :

   NOAA       Earth
Advisory